Terminal Aerodrome Forecast
Issued by NWS

Home | Current Version | Previous Version | Text Only | Print | Product List | Glossary On
Versions: 1 2 3 4 5 6 7 8 9 10 11 12 13 14 15 16 17 18 19 20 21 22 23 24 25 26 27
326
FTUS41 KOKX 221331 AAA
TAFTEB
TAF AMD
KTEB 221331Z 2214/2312 21005KT P6SM BKN010
     FM221500 22008KT P6SM FEW025 BKN250
     FM221700 21014G24KT P6SM SCT050 BKN250
      TEMPO 2220/2223 18013G19KT
     FM230200 21012G20KT P6SM VCSH SCT015 BKN050 PROB30 2303/2307
      5SM TSRA BKN025 BKN050CB
     FM230700 25008KT P6SM VCSH SCT025 BKN040=

USA.gov is the U.S. government's official web portal to all federal, state and local government web resources and services.